Time;durP1;ratioP1;P1;durP2;ratioP2;P2;SDS_P1;SDS_P2;PMS_P1;PMS_P2;Temp;Humidity;BMP_temperature;BMP_pressure;BME280_temperature;BME280_humidity;BME280_pressure;Samples;Min_cycle;Max_cycle;Signal;HPM_P1;HPM_P2
2024/03/26 00:02:21;;;;;;;5.35;2.03;;;7.50;98.10;;;;;;4980381;28;20026;-85
2024/03/26 00:04:47;;;;;;;4.45;2.47;;;7.50;98.20;;;;;;4964431;28;20030;-85
2024/03/26 00:07:12;;;;;;;4.63;2.30;;;7.50;98.20;;;;;;4980258;28;20505;-85
2024/03/26 00:09:38;;;;;;;7.68;2.33;;;7.50;98.20;;;;;;4964173;28;20053;-85
2024/03/26 00:12:04;;;;;;;4.47;2.10;;;7.50;98.20;;;;;;4980242;28;20525;-85
2024/03/26 00:14:32;;;;;;;5.00;2.25;;;7.50;98.20;;;;;;4948618;28;20038;-84
2024/03/26 00:16:58;;;;;;;5.65;2.40;;;7.50;98.30;;;;;;4999656;28;20038;-84
2024/03/26 00:19:24;;;;;;;3.95;2.05;;;7.40;98.30;;;;;;4988218;28;20015;-84
2024/03/26 00:21:49;;;;;;;5.10;2.50;;;7.40;98.30;;;;;;4972592;28;20045;-85
2024/03/26 00:24:15;;;;;;;6.00;2.35;;;7.40;98.30;;;;;;5004876;28;20458;-85
2024/03/26 00:26:41;;;;;;;5.65;2.13;;;7.40;98.30;;;;;;4997946;28;20033;-83
2024/03/26 00:29:06;;;;;;;5.15;2.17;;;7.40;98.40;;;;;;4964562;28;20053;-85
2024/03/26 00:31:33;;;;;;;6.10;2.42;;;7.40;98.40;;;;;;4963944;28;20038;-85
2024/03/26 00:34:02;;;;;;;4.75;2.33;;;7.40;98.40;;;;;;4979663;28;20125;-85
2024/03/26 00:36:28;;;;;;;6.13;2.05;;;7.30;98.50;;;;;;4979896;28;20026;-85
2024/03/26 00:38:54;;;;;;;7.45;2.50;;;7.20;98.50;;;;;;4979215;28;20049;-85
2024/03/26 00:41:20;;;;;;;6.15;2.63;;;7.20;98.60;;;;;;4997033;28;20046;-85
2024/03/26 00:43:46;;;;;;;5.45;2.40;;;7.10;98.60;;;;;;4963596;28;20034;-84
2024/03/26 00:46:11;;;;;;;6.60;2.50;;;7.10;98.60;;;;;;4963493;28;20117;-85
2024/03/26 00:48:37;;;;;;;7.75;2.75;;;7.00;98.70;;;;;;4979533;28;20106;-84
2024/03/26 00:51:03;;;;;;;4.55;2.55;;;7.00;98.70;;;;;;4979236;28;20509;-84
2024/03/26 00:53:28;;;;;;;7.55;3.20;;;7.00;98.70;;;;;;4997314;28;20034;-85
2024/03/26 00:55:54;;;;;;;4.63;2.20;;;7.00;98.70;;;;;;4979078;28;20069;-84
2024/03/26 00:58:20;;;;;;;7.35;2.97;;;7.00;98.80;;;;;;4996491;28;20030;-85
2024/03/26 01:00:45;;;;;;;9.80;3.67;;;6.90;98.80;;;;;;4947195;28;20037;-85
2024/03/26 01:03:11;;;;;;;6.30;2.58;;;6.90;98.80;;;;;;4979402;28;20038;-84
2024/03/26 01:05:37;;;;;;;5.97;2.65;;;6.90;98.90;;;;;;4963039;28;20041;-86
2024/03/26 01:08:02;;;;;;;6.05;2.45;;;6.80;98.90;;;;;;4979398;28;20065;-85
2024/03/26 01:10:28;;;;;;;6.90;2.53;;;6.80;99.00;;;;;;4979025;28;20478;-85
2024/03/26 01:12:54;;;;;;;7.57;2.58;;;6.80;99.00;;;;;;4963024;28;20069;-85
2024/03/26 01:15:20;;;;;;;7.53;2.72;;;6.80;99.00;;;;;;4978880;28;20038;-86
2024/03/26 01:17:45;;;;;;;7.35;2.70;;;6.70;99.00;;;;;;4979107;28;20030;-85
2024/03/26 01:20:12;;;;;;;6.15;2.65;;;6.70;99.10;;;;;;4979242;28;20026;-84
2024/03/26 01:22:38;;;;;;;7.50;2.60;;;6.70;99.40;;;;;;4979373;28;20029;-84
2024/03/26 01:25:07;;;;;;;8.75;3.25;;;6.70;99.20;;;;;;4979134;28;20034;-85
2024/03/26 01:27:35;;;;;;;6.40;2.75;;;6.70;99.20;;;;;;4996416;28;20023;-85
2024/03/26 01:30:01;;;;;;;5.97;2.50;;;6.70;99.20;;;;;;4963254;28;20057;-85
2024/03/26 01:32:27;;;;;;;6.60;2.45;;;6.70;99.20;;;;;;4996584;28;20022;-85
2024/03/26 01:34:53;;;;;;;7.65;2.50;;;6.70;99.20;;;;;;4979234;28;20046;-85
2024/03/26 01:37:22;;;;;;;7.88;2.83;;;6.70;99.20;;;;;;4963119;28;20360;-86
2024/03/26 01:39:48;;;;;;;6.72;2.47;;;6.70;99.20;;;;;;4980312;28;20031;-86
2024/03/26 01:42:13;;;;;;;6.18;2.35;;;6.70;99.20;;;;;;5008916;28;20042;-84
2024/03/26 01:44:39;;;;;;;5.70;2.45;;;6.70;99.20;;;;;;5003335;28;20064;-84
2024/03/26 01:47:05;;;;;;;7.05;2.72;;;6.70;99.20;;;;;;4987216;28;20018;-85
2024/03/26 01:49:33;;;;;;;6.25;3.17;;;6.70;99.20;;;;;;4970773;28;20054;-86
2024/03/26 01:52:00;;;;;;;7.45;2.90;;;6.60;99.20;;;;;;4984044;28;20058;-86
2024/03/26 01:54:25;;;;;;;7.03;3.15;;;6.60;99.20;;;;;;4962632;28;20061;-85
2024/03/26 01:56:54;;;;;;;9.45;3.05;;;6.60;99.20;;;;;;4961660;28;20482;-85
2024/03/26 01:59:20;;;;;;;7.75;3.13;;;6.50;99.20;;;;;;4978079;28;20036;-85
2024/03/26 02:01:45;;;;;;;6.25;2.58;;;6.50;99.30;;;;;;4995691;28;20391;-85
2024/03/26 02:04:11;;;;;;;7.18;2.67;;;6.50;99.40;;;;;;4978581;28;20034;-85
2024/03/26 02:06:37;;;;;;;7.22;3.13;;;6.50;99.40;;;;;;4978605;28;20429;-85
2024/03/26 02:09:03;;;;;;;3.42;2.53;;;6.40;99.40;;;;;;4962529;28;20031;-85
2024/03/26 02:11:30;;;;;;;3.35;2.20;;;6.40;99.50;;;;;;4962242;28;20045;-86
2024/03/26 02:13:56;;;;;;;8.02;2.85;;;6.40;99.50;;;;;;4978613;28;20042;-86
2024/03/26 02:16:21;;;;;;;5.65;2.60;;;6.50;99.50;;;;;;4978010;28;20390;-86
2024/03/26 02:18:47;;;;;;;5.53;2.50;;;6.50;99.50;;;;;;4980716;28;20030;-85
2024/03/26 02:21:13;;;;;;;6.95;2.50;;;6.50;99.40;;;;;;4963315;28;20034;-84
2024/03/26 02:23:39;;;;;;;4.85;2.47;;;6.50;99.40;;;;;;4962290;28;20088;-85
2024/03/26 02:26:04;;;;;;;8.30;2.70;;;6.50;99.40;;;;;;4962556;28;20059;-86
2024/03/26 02:28:31;;;;;;;5.13;2.55;;;6.50;99.40;;;;;;4980612;28;20039;-86
2024/03/26 02:30:57;;;;;;;7.78;2.58;;;6.50;99.50;;;;;;4977931;28;20100;-86
2024/03/26 02:33:22;;;;;;;9.13;3.30;;;6.50;99.50;;;;;;4945797;28;20125;-86
2024/03/26 02:35:48;;;;;;;9.13;3.15;;;6.50;99.50;;;;;;4947526;28;20112;-85
2024/03/26 02:38:15;;;;;;;6.35;2.88;;;6.50;99.50;;;;;;4962354;28;20037;-85
2024/03/26 02:40:40;;;;;;;4.68;2.65;;;6.50;99.50;;;;;;4945731;28;20414;-85
2024/03/26 02:43:06;;;;;;;5.35;2.72;;;6.50;99.50;;;;;;4977824;28;20038;-85
2024/03/26 02:45:32;;;;;;;4.50;2.67;;;6.60;99.50;;;;;;4977240;28;20109;-85
2024/03/26 02:47:57;;;;;;;4.95;2.17;;;6.60;99.50;;;;;;4977833;28;20030;-85
2024/03/26 02:50:23;;;;;;;3.40;2.25;;;6.60;99.40;;;;;;4961269;28;20026;-85
2024/03/26 02:52:49;;;;;;;5.50;2.55;;;6.60;99.40;;;;;;4977682;28;20030;-85
2024/03/26 02:55:14;;;;;;;6.05;2.70;;;6.70;99.40;;;;;;4994857;28;20038;-85
2024/03/26 02:57:40;;;;;;;4.95;2.50;;;6.70;99.40;;;;;;4942141;28;20438;-85
2024/03/26 03:00:06;;;;;;;4.13;2.25;;;6.70;99.40;;;;;;4975508;28;20031;-86
2024/03/26 03:02:32;;;;;;;4.80;2.72;;;6.70;99.40;;;;;;4974710;28;20049;-85
2024/03/26 03:04:58;;;;;;;4.93;2.53;;;6.70;99.30;;;;;;4943520;28;20491;-85
2024/03/26 03:07:23;;;;;;;5.38;2.50;;;6.70;99.30;;;;;;4995131;28;20079;-84
2024/03/26 03:09:49;;;;;;;5.97;2.70;;;6.70;99.30;;;;;;4982082;28;20050;-84
2024/03/26 03:12:15;;;;;;;5.88;2.65;;;6.70;99.30;;;;;;4998123;28;20019;-85
2024/03/26 03:14:41;;;;;;;5.40;2.58;;;6.70;99.30;;;;;;4976023;28;20039;-85
2024/03/26 03:17:07;;;;;;;5.43;2.30;;;6.70;99.30;;;;;;4974215;28;20117;-85
2024/03/26 03:19:32;;;;;;;5.03;2.70;;;6.70;99.30;;;;;;4957980;28;20379;-85
2024/03/26 03:21:58;;;;;;;4.05;2.40;;;6.70;99.30;;;;;;4957982;28;20023;-85
2024/03/26 03:24:24;;;;;;;5.38;2.33;;;6.70;99.30;;;;;;4957814;28;20411;-84
2024/03/26 03:26:49;;;;;;;4.90;2.58;;;6.70;99.30;;;;;;4957947;28;20035;-85
2024/03/26 03:29:15;;;;;;;4.30;2.40;;;6.70;99.30;;;;;;4976774;28;20031;-86
2024/03/26 03:31:41;;;;;;;4.35;2.13;;;6.70;99.30;;;;;;4961708;28;20031;-86
2024/03/26 03:34:06;;;;;;;5.18;2.47;;;6.60;99.30;;;;;;4978652;28;20101;-86
2024/03/26 03:36:32;;;;;;;6.13;2.70;;;6.60;99.30;;;;;;4962009;28;20081;-85
2024/03/26 03:38:57;;;;;;;4.47;2.47;;;6.60;99.30;;;;;;4961511;28;20035;-84
2024/03/26 03:41:23;;;;;;;3.90;2.33;;;6.60;99.30;;;;;;4977662;28;20062;-86
2024/03/26 03:43:49;;;;;;;5.68;2.40;;;6.60;99.30;;;;;;4961765;28;20031;-84
2024/03/26 03:46:14;;;;;;;5.78;2.72;;;6.60;99.30;;;;;;4961474;28;20030;-85
2024/03/26 03:48:42;;;;;;;6.00;2.83;;;6.60;99.30;;;;;;4977432;28;20395;-86
2024/03/26 03:51:08;;;;;;;5.50;2.33;;;6.60;99.30;;;;;;4961423;28;20027;-85
2024/03/26 03:53:34;;;;;;;5.18;2.30;;;6.60;99.30;;;;;;4945115;28;20416;-85
2024/03/26 03:55:59;;;;;;;4.55;2.45;;;6.60;99.30;;;;;;4978001;28;20137;-86
2024/03/26 03:58:25;;;;;;;4.93;2.40;;;6.50;99.40;;;;;;4961734;28;20121;-86
2024/03/26 04:00:50;;;;;;;3.85;2.47;;;6.50;99.40;;;;;;4961442;28;20023;-85
2024/03/26 04:03:16;;;;;;;5.03;2.60;;;6.50;99.40;;;;;;4977427;28;20034;-86
2024/03/26 04:05:42;;;;;;;7.70;3.20;;;6.50;99.50;;;;;;4977292;28;20419;-85
2024/03/26 04:08:09;;;;;;;5.68;2.80;;;6.40;99.50;;;;;;4961232;28;20498;-84
2024/03/26 04:10:41;;;;;;;4.93;2.40;;;6.40;99.60;;;;;;4977560;28;20084;-85
2024/03/26 04:13:07;;;;;;;4.68;2.65;;;6.40;99.60;;;;;;4977093;28;20065;-85
2024/03/26 04:15:39;;;;;;;8.02;3.22;;;6.30;99.60;;;;;;4977553;28;20026;-85
2024/03/26 04:18:05;;;;;;;5.30;2.50;;;6.30;99.70;;;;;;4977708;28;20532;-85
2024/03/26 04:20:31;;;;;;;5.63;3.15;;;6.30;99.70;;;;;;4980434;28;20027;-85
2024/03/26 04:22:57;;;;;;;6.18;2.85;;;6.30;99.70;;;;;;4986205;28;20031;-85
2024/03/26 04:25:22;;;;;;;6.57;2.55;;;6.30;99.70;;;;;;4979994;28;20391;-84
2024/03/26 04:27:48;;;;;;;6.20;2.70;;;6.30;99.80;;;;;;4979103;28;20518;-85
2024/03/26 04:30:14;;;;;;;5.60;2.60;;;6.30;99.80;;;;;;4988490;28;20069;-85
2024/03/26 04:32:39;;;;;;;6.72;2.83;;;6.30;99.70;;;;;;5001546;28;20034;-86
2024/03/26 04:35:05;;;;;;;6.78;2.60;;;6.30;99.70;;;;;;4985509;28;20030;-85
2024/03/26 04:37:32;;;;;;;5.50;2.78;;;6.20;99.80;;;;;;4984782;28;20054;-85
2024/03/26 04:39:58;;;;;;;4.82;3.00;;;6.20;99.80;;;;;;4962640;28;20492;-85
2024/03/26 04:42:24;;;;;;;7.10;2.80;;;6.20;99.80;;;;;;4960847;28;20361;-86
2024/03/26 04:44:50;;;;;;;5.97;3.00;;;6.20;99.80;;;;;;4976405;28;20031;-85
2024/03/26 04:47:15;;;;;;;6.28;2.80;;;6.20;99.80;;;;;;4960495;28;20027;-85
2024/03/26 04:49:41;;;;;;;6.35;2.70;;;6.10;99.80;;;;;;4960098;28;20031;-85
2024/03/26 04:52:07;;;;;;;4.97;2.80;;;6.00;99.90;;;;;;4960238;28;20123;-86
2024/03/26 04:54:34;;;;;;;4.90;2.50;;;6.00;99.90;;;;;;4975977;28;20113;-85
2024/03/26 04:57:02;;;;;;;5.20;2.55;;;6.00;99.90;;;;;;4990667;28;20113;-85
2024/03/26 04:59:29;;;;;;;5.85;2.72;;;6.00;99.90;;;;;;4964381;28;20022;-85
2024/03/26 05:01:54;;;;;;;5.68;2.90;;;6.00;99.90;;;;;;4963619;28;20022;-84
2024/03/26 05:04:20;;;;;;;5.80;2.90;;;6.00;99.90;;;;;;4963747;28;20105;-86
2024/03/26 05:06:46;;;;;;;8.15;3.03;;;5.90;99.90;;;;;;4979365;28;20038;-86
2024/03/26 05:09:11;;;;;;;6.85;2.92;;;5.90;99.90;;;;;;4979928;28;20037;-86
2024/03/26 05:11:37;;;;;;;5.43;3.00;;;5.90;99.90;;;;;;4979243;28;20041;-85
2024/03/26 05:14:02;;;;;;;7.10;2.60;;;5.90;99.90;;;;;;4947133;28;20038;-85
2024/03/26 05:16:29;;;;;;;5.55;3.00;;;5.80;99.90;;;;;;4963514;28;20121;-86
2024/03/26 05:18:55;;;;;;;4.40;2.80;;;5.90;99.90;;;;;;4979367;28;20029;-86
2024/03/26 05:21:21;;;;;;;7.80;2.97;;;5.80;99.90;;;;;;4963472;28;20030;-87
2024/03/26 05:23:46;;;;;;;6.50;2.47;;;5.80;99.90;;;;;;4979553;28;20035;-84
2024/03/26 05:26:12;;;;;;;5.95;2.65;;;5.70;99.90;;;;;;4963381;28;20414;-85
2024/03/26 05:28:38;;;;;;;9.77;3.53;;;5.70;99.90;;;;;;4979176;28;20114;-83
2024/03/26 05:31:17;;;;;;;6.45;2.80;;;5.70;99.90;;;;;;4963015;28;20034;-84
2024/03/26 05:33:45;;;;;;;5.75;2.80;;;5.70;99.90;;;;;;4965056;28;20146;-82
2024/03/26 05:36:12;;;;;;;6.90;3.10;;;5.70;99.90;;;;;;4988347;28;20085;-82
2024/03/26 05:38:37;;;;;;;8.07;3.47;;;5.70;99.90;;;;;;4988573;28;20027;-83
2024/03/26 05:41:03;;;;;;;5.03;3.00;;;5.60;99.90;;;;;;5003872;28;20033;-84
2024/03/26 05:43:29;;;;;;;5.10;2.92;;;5.60;99.90;;;;;;4999999;28;20402;-84
2024/03/26 05:45:54;;;;;;;7.13;3.58;;;5.60;99.90;;;;;;4979499;28;20026;-84
2024/03/26 05:48:20;;;;;;;7.28;2.80;;;5.60;99.90;;;;;;4979420;28;20022;-83
2024/03/26 05:50:46;;;;;;;5.22;2.85;;;5.60;99.90;;;;;;4963765;28;20471;-82
2024/03/26 05:53:13;;;;;;;4.32;2.90;;;5.60;99.90;;;;;;4976296;28;20057;-82
2024/03/26 05:55:39;;;;;;;8.30;2.90;;;5.70;99.90;;;;;;4986985;28;20078;-85
2024/03/26 05:58:04;;;;;;;6.53;2.85;;;5.60;99.90;;;;;;5020150;28;20015;-84
2024/03/26 06:00:30;;;;;;;3.28;2.42;;;5.60;99.90;;;;;;5002761;28;20077;-84
2024/03/26 06:02:56;;;;;;;6.80;3.00;;;5.70;99.90;;;;;;4964603;28;20033;-84
2024/03/26 06:05:22;;;;;;;3.38;2.50;;;5.70;99.90;;;;;;4947557;28;20120;-84
2024/03/26 06:07:48;;;;;;;5.93;2.97;;;5.70;99.90;;;;;;4962414;28;20030;-83
2024/03/26 06:10:13;;;;;;;5.88;2.90;;;5.70;99.90;;;;;;4963001;28;20037;-84
2024/03/26 06:12:41;;;;;;;6.18;3.15;;;5.70;99.90;;;;;;4980134;28;20390;-85
2024/03/26 06:15:07;;;;;;;7.03;3.30;;;5.60;99.90;;;;;;4979029;28;20038;-86
2024/03/26 06:17:33;;;;;;;6.68;2.92;;;5.60;99.90;;;;;;4962132;28;20031;-83
2024/03/26 06:19:59;;;;;;;5.85;3.53;;;5.60;99.90;;;;;;4962345;28;20457;-84
2024/03/26 06:22:25;;;;;;;5.50;3.20;;;5.60;99.90;;;;;;4978591;28;20455;-83
2024/03/26 06:24:50;;;;;;;4.78;3.00;;;5.60;99.90;;;;;;4977494;28;20463;-83
2024/03/26 06:27:16;;;;;;;6.60;2.97;;;5.60;99.90;;;;;;4945677;28;20033;-83
2024/03/26 06:29:42;;;;;;;4.30;2.80;;;5.60;99.90;;;;;;4945363;28;20122;-82
2024/03/26 06:32:07;;;;;;;5.70;3.22;;;5.60;99.90;;;;;;4945800;28;20113;-83
2024/03/26 06:34:33;;;;;;;8.40;2.97;;;5.70;99.90;;;;;;4945395;28;20039;-83
2024/03/26 06:36:59;;;;;;;4.97;2.70;;;5.70;99.90;;;;;;4977507;28;20117;-83
2024/03/26 06:39:25;;;;;;;7.80;3.33;;;5.70;99.90;;;;;;4945420;28;20036;-83
2024/03/26 06:41:51;;;;;;;5.75;2.88;;;5.80;99.90;;;;;;4961513;28;20145;-84
2024/03/26 06:44:17;;;;;;;5.43;2.60;;;5.80;99.90;;;;;;4961156;28;20116;-83
2024/03/26 06:46:42;;;;;;;5.80;3.30;;;5.80;99.90;;;;;;4945340;28;20030;-83
2024/03/26 06:49:08;;;;;;;5.35;3.00;;;5.80;99.90;;;;;;4995032;28;20030;-82
2024/03/26 06:51:34;;;;;;;5.35;3.03;;;5.80;99.90;;;;;;4945668;28;20145;-82
2024/03/26 06:53:59;;;;;;;4.88;3.10;;;5.90;99.90;;;;;;4976980;28;20056;-83
2024/03/26 06:56:25;;;;;;;4.35;3.00;;;5.90;99.90;;;;;;4957752;28;20087;-83
2024/03/26 06:58:51;;;;;;;5.68;2.95;;;6.00;99.90;;;;;;4958021;28;20026;-82
2024/03/26 07:01:17;;;;;;;7.10;2.95;;;6.00;99.90;;;;;;4973999;28;20027;-84
2024/03/26 07:03:43;;;;;;;6.07;3.65;;;6.00;99.90;;;;;;4957640;28;20041;-84
2024/03/26 07:06:09;;;;;;;8.32;3.33;;;6.00;99.90;;;;;;4974398;28;20109;-85
2024/03/26 07:08:38;;;;;;;5.10;2.78;;;6.10;99.90;;;;;;4958083;28;20383;-82
2024/03/26 07:11:03;;;;;;;5.75;3.03;;;6.20;99.90;;;;;;4974355;28;20386;-83
2024/03/26 07:13:29;;;;;;;5.55;2.67;;;6.20;99.90;;;;;;4958730;28;20031;-83
2024/03/26 07:15:55;;;;;;;5.47;3.15;;;6.30;99.90;;;;;;4991251;28;20045;-84
2024/03/26 07:18:21;;;;;;;5.13;2.97;;;6.30;99.90;;;;;;4998851;28;20051;-83
2024/03/26 07:20:47;;;;;;;5.90;3.15;;;6.40;99.90;;;;;;4999248;28;20046;-84
2024/03/26 07:23:13;;;;;;;7.97;3.30;;;6.40;99.90;;;;;;4978570;28;20023;-84
2024/03/26 07:25:39;;;;;;;4.50;2.80;;;6.40;99.90;;;;;;4975256;28;20472;-82
2024/03/26 07:28:05;;;;;;;5.60;2.83;;;6.50;99.90;;;;;;4973899;28;20030;-82
2024/03/26 07:30:33;;;;;;;6.60;2.65;;;6.50;99.90;;;;;;4975208;28;20027;-82
2024/03/26 07:32:59;;;;;;;4.20;3.00;;;6.60;99.90;;;;;;4957374;28;20105;-83
2024/03/26 07:35:25;;;;;;;6.35;3.15;;;6.70;99.90;;;;;;4941609;28;20070;-83
2024/03/26 07:37:51;;;;;;;5.65;2.60;;;6.70;99.90;;;;;;4973624;28;20078;-83
2024/03/26 07:40:17;;;;;;;4.65;3.17;;;6.80;99.90;;;;;;4957671;28;20029;-83
2024/03/26 07:42:42;;;;;;;6.22;3.40;;;6.80;99.90;;;;;;4957527;28;20121;-84
2024/03/26 07:45:09;;;;;;;5.25;3.10;;;6.90;99.90;;;;;;4941602;28;20118;-83
2024/03/26 07:47:36;;;;;;;6.35;3.55;;;7.00;99.90;;;;;;4973721;28;20027;-84
2024/03/26 07:50:01;;;;;;;5.68;3.67;;;7.00;99.90;;;;;;4974527;28;20034;-86
2024/03/26 07:52:27;;;;;;;6.07;3.55;;;7.00;99.90;;;;;;4957368;28;20471;-84
2024/03/26 07:54:53;;;;;;;6.60;3.65;;;7.10;99.90;;;;;;4974710;28;20485;-84
2024/03/26 07:57:18;;;;;;;5.30;2.88;;;7.20;99.90;;;;;;4973276;28;20061;-84
2024/03/26 07:59:44;;;;;;;6.57;3.10;;;7.30;99.90;;;;;;4973294;28;20125;-84
2024/03/26 08:02:11;;;;;;;5.80;3.20;;;7.30;99.90;;;;;;4941402;28;20130;-83
2024/03/26 08:04:37;;;;;;;3.95;2.67;;;7.40;99.90;;;;;;4974568;28;20485;-84
2024/03/26 08:07:03;;;;;;;5.00;3.15;;;7.50;99.90;;;;;;4973423;28;20042;-83
2024/03/26 08:09:29;;;;;;;6.43;3.17;;;7.50;99.90;;;;;;4973605;28;20027;-84
2024/03/26 08:11:55;;;;;;;6.53;2.95;;;7.60;99.90;;;;;;4941209;28;20035;-84
2024/03/26 08:14:21;;;;;;;6.03;2.75;;;7.60;99.90;;;;;;4973196;28;20101;-83
2024/03/26 08:16:47;;;;;;;4.72;2.63;;;7.80;99.90;;;;;;4976351;28;20019;-83
2024/03/26 08:19:12;;;;;;;4.63;3.10;;;7.80;99.90;;;;;;4944795;28;20053;-84
2024/03/26 08:21:38;;;;;;;4.05;2.70;;;8.00;99.90;;;;;;4960992;28;20031;-84
2024/03/26 08:24:04;;;;;;;5.70;2.50;;;8.00;99.80;;;;;;4976762;28;20110;-84
2024/03/26 08:26:33;;;;;;;4.65;2.85;;;8.10;99.90;;;;;;4977249;28;20475;-83
2024/03/26 08:28:59;;;;;;;6.63;3.40;;;8.10;99.80;;;;;;4977020;28;20038;-83
2024/03/26 08:31:25;;;;;;;5.05;2.65;;;8.20;99.60;;;;;;4978103;28;20027;-84
2024/03/26 08:33:51;;;;;;;6.75;3.15;;;8.30;99.60;;;;;;4960775;28;20439;-83
2024/03/26 08:36:17;;;;;;;4.78;2.95;;;8.30;99.70;;;;;;4944959;28;20029;-83
2024/03/26 08:38:43;;;;;;;5.03;2.80;;;8.40;99.60;;;;;;4961703;28;20031;-84
2024/03/26 08:41:08;;;;;;;6.47;3.97;;;8.40;99.60;;;;;;4993719;28;20031;-83
2024/03/26 08:43:34;;;;;;;5.57;3.03;;;8.40;99.40;;;;;;4984987;28;20046;-83
2024/03/26 08:45:59;;;;;;;5.22;2.97;;;8.40;99.40;;;;;;4993494;28;20070;-83
2024/03/26 08:48:25;;;;;;;5.25;3.00;;;8.50;99.40;;;;;;4964040;28;20034;-83
2024/03/26 08:50:51;;;;;;;6.97;3.30;;;8.50;99.50;;;;;;4976522;28;20490;-84
2024/03/26 08:53:17;;;;;;;5.50;3.40;;;8.60;99.50;;;;;;4960377;28;20037;-84
2024/03/26 08:55:46;;;;;;;6.43;3.08;;;8.60;99.50;;;;;;4978488;28;20031;-83
2024/03/26 08:58:11;;;;;;;6.75;3.60;;;8.70;99.40;;;;;;4963373;28;20062;-84
2024/03/26 09:00:37;;;;;;;6.70;3.60;;;8.70;99.40;;;;;;4963414;28;20072;-84
2024/03/26 09:03:03;;;;;;;5.13;3.22;;;8.70;99.30;;;;;;4963099;28;20030;-84
2024/03/26 09:05:29;;;;;;;5.88;3.03;;;8.70;99.30;;;;;;4963111;28;20062;-84
2024/03/26 09:07:58;;;;;;;4.72;3.10;;;8.80;99.20;;;;;;4963190;28;20050;-83
2024/03/26 09:10:23;;;;;;;4.85;3.10;;;8.80;99.30;;;;;;4963380;28;20084;-83
2024/03/26 09:12:51;;;;;;;5.00;3.53;;;8.90;99.40;;;;;;4962988;28;20027;-84
2024/03/26 09:15:16;;;;;;;5.78;3.20;;;8.90;99.30;;;;;;4962875;28;20499;-83
2024/03/26 09:17:42;;;;;;;7.82;3.30;;;9.00;99.40;;;;;;4963102;28;20066;-84
2024/03/26 09:20:09;;;;;;;4.15;2.95;;;9.10;99.30;;;;;;4978944;28;20475;-84
2024/03/26 09:22:35;;;;;;;3.92;2.92;;;9.10;99.30;;;;;;4947438;28;20026;-83
2024/03/26 09:25:02;;;;;;;4.88;3.15;;;9.10;99.30;;;;;;4946960;28;20184;-82
2024/03/26 09:27:28;;;;;;;4.53;2.80;;;9.20;99.20;;;;;;4978625;28;20042;-84
2024/03/26 09:29:54;;;;;;;4.05;2.83;;;9.30;99.30;;;;;;4962866;28;20026;-84
2024/03/26 09:32:19;;;;;;;5.95;3.40;;;9.30;99.20;;;;;;4995959;28;20035;-83
2024/03/26 09:34:45;;;;;;;4.03;2.83;;;9.40;99.30;;;;;;4946640;28;20038;-84
2024/03/26 09:37:11;;;;;;;6.22;3.03;;;9.40;99.30;;;;;;4978371;28;20034;-82
2024/03/26 09:39:36;;;;;;;6.63;3.28;;;9.50;99.20;;;;;;4978769;28;20385;-83
2024/03/26 09:42:04;;;;;;;5.15;3.22;;;9.50;99.20;;;;;;4946759;28;20093;-84
2024/03/26 09:44:32;;;;;;;4.38;3.03;;;9.50;99.10;;;;;;4979154;28;20121;-83
2024/03/26 09:47:00;;;;;;;4.53;3.00;;;9.60;99.20;;;;;;4963979;28;20062;-82
2024/03/26 09:49:27;;;;;;;6.53;3.17;;;9.70;99.20;;;;;;4979420;28;20022;-83
2024/03/26 09:51:54;;;;;;;4.28;2.72;;;9.70;99.30;;;;;;4979180;28;20029;-83
2024/03/26 09:54:20;;;;;;;6.72;3.47;;;9.80;99.20;;;;;;4979051;28;20092;-83
2024/03/26 09:56:46;;;;;;;6.47;3.63;;;9.90;99.20;;;;;;4981336;28;20050;-83
2024/03/26 09:59:13;;;;;;;5.82;3.33;;;9.90;99.20;;;;;;4963941;28;20035;-83
2024/03/26 10:01:39;;;;;;;4.68;2.95;;;10.00;99.10;;;;;;4981399;28;20073;-84
2024/03/26 10:04:05;;;;;;;5.65;3.17;;;10.00;99.10;;;;;;4996360;28;20034;-84
2024/03/26 10:06:32;;;;;;;5.45;3.17;;;10.20;99.10;;;;;;4953729;28;20041;-84
2024/03/26 10:08:59;;;;;;;5.78;3.75;;;10.20;99.10;;;;;;4982471;28;20106;-84
2024/03/26 10:11:27;;;;;;;4.88;3.30;;;10.20;99.10;;;;;;4981097;28;20115;-84
2024/03/26 10:13:53;;;;;;;5.18;3.10;;;10.30;99.10;;;;;;4981632;28;20088;-83
2024/03/26 10:16:19;;;;;;;7.50;3.65;;;10.30;99.00;;;;;;4979844;28;20374;-84
2024/03/26 10:18:46;;;;;;;7.20;3.35;;;10.30;98.90;;;;;;4977907;28;20029;-84
2024/03/26 10:21:12;;;;;;;6.20;3.40;;;10.30;99.00;;;;;;4978232;28;20023;-84
2024/03/26 10:23:39;;;;;;;3.80;2.90;;;10.40;98.90;;;;;;4961590;28;20379;-84
2024/03/26 10:26:05;;;;;;;4.20;3.13;;;10.40;98.90;;;;;;4995412;28;20035;-84
2024/03/26 10:28:32;;;;;;;4.28;3.17;;;10.50;98.90;;;;;;4978049;28;20038;-83
2024/03/26 10:30:57;;;;;;;4.47;3.10;;;10.50;98.90;;;;;;4978009;28;20059;-82
2024/03/26 10:33:26;;;;;;;5.40;2.88;;;10.50;98.80;;;;;;4977436;28;20030;-83
2024/03/26 10:35:54;;;;;;;3.90;2.50;;;10.60;98.80;;;;;;4995203;28;20026;-84
2024/03/26 10:38:22;;;;;;;6.38;3.22;;;10.60;99.10;;;;;;4960698;28;20030;-84
2024/03/26 10:41:01;;;;;;;4.53;2.72;;;10.70;98.80;;;;;;4978106;28;20030;-83
2024/03/26 10:43:27;;;;;;;3.00;2.30;;;10.80;98.80;;;;;;4995342;28;20037;-84
2024/03/26 10:45:53;;;;;;;3.03;2.15;;;10.80;98.70;;;;;;4961322;28;20022;-84
2024/03/26 10:48:20;;;;;;;5.13;2.78;;;10.90;98.80;;;;;;4977643;28;20430;-84
2024/03/26 10:50:47;;;;;;;7.00;2.63;;;10.90;98.80;;;;;;4977543;28;20018;-83
2024/03/26 10:53:13;;;;;;;3.80;2.00;;;11.00;98.70;;;;;;4977173;28;20073;-84
2024/03/26 10:55:42;;;;;;;3.83;2.20;;;11.00;98.70;;;;;;4977201;28;20046;-82
2024/03/26 10:58:07;;;;;;;4.75;2.15;;;11.10;98.60;;;;;;4977355;28;20080;-84
2024/03/26 11:00:37;;;;;;;4.90;2.30;;;11.10;98.60;;;;;;4977532;28;20459;-84
2024/03/26 11:03:04;;;;;;;2.87;2.13;;;11.20;98.50;;;;;;4994858;28;20018;-83
2024/03/26 11:05:35;;;;;;;4.13;1.90;;;11.20;98.40;;;;;;4977189;28;20031;-83
2024/03/26 11:08:01;;;;;;;3.15;2.42;;;11.30;98.40;;;;;;4977195;28;20113;-83
2024/03/26 11:10:27;;;;;;;5.05;2.45;;;11.30;98.40;;;;;;4961064;28;20030;-83
2024/03/26 11:12:52;;;;;;;4.57;2.40;;;11.30;98.40;;;;;;4945173;28;20037;-84
2024/03/26 11:15:21;;;;;;;3.75;2.20;;;11.40;98.30;;;;;;4960915;28;20069;-84
2024/03/26 11:17:56;;;;;;;3.55;2.00;;;11.50;98.30;;;;;;4994769;28;20038;-84
2024/03/26 11:20:24;;;;;;;2.90;1.98;;;11.50;98.20;;;;;;4977195;28;20030;-84
2024/03/26 11:23:03;;;;;;;4.90;2.25;;;11.60;98.20;;;;;;4977254;28;20460;-84
2024/03/26 11:25:31;;;;;;;4.57;2.13;;;11.60;98.10;;;;;;4977412;28;20038;-83
2024/03/26 11:27:59;;;;;;;3.45;2.22;;;11.70;98.10;;;;;;4961171;28;20085;-83
2024/03/26 11:30:29;;;;;;;5.65;1.98;;;11.70;97.90;;;;;;4977768;28;20026;-83
2024/03/26 11:32:56;;;;;;;4.07;2.33;;;11.70;97.80;;;;;;4977310;28;20490;-84
2024/03/26 11:35:26;;;;;;;3.70;2.47;;;11.70;97.70;;;;;;4977400;28;20088;-84
2024/03/26 11:37:54;;;;;;;4.38;2.10;;;11.80;97.80;;;;;;4964190;28;20030;-83
2024/03/26 11:40:20;;;;;;;3.30;2.20;;;11.80;97.80;;;;;;4975603;28;20054;-83
2024/03/26 11:42:48;;;;;;;3.55;2.13;;;11.90;97.80;;;;;;5018197;28;20061;-84
2024/03/26 11:45:14;;;;;;;3.13;2.08;;;11.90;97.80;;;;;;4984501;28;20102;-85
2024/03/26 11:47:40;;;;;;;4.03;2.60;;;12.00;97.80;;;;;;4984728;28;20098;-84
2024/03/26 11:50:07;;;;;;;3.40;2.40;;;12.10;97.80;;;;;;4998923;28;20026;-83
2024/03/26 11:52:34;;;;;;;3.75;2.28;;;12.10;97.80;;;;;;4981618;28;20138;-84
2024/03/26 11:55:04;;;;;;;5.32;2.47;;;12.20;97.70;;;;;;4980336;28;20558;-82
2024/03/26 11:57:29;;;;;;;5.47;2.30;;;12.20;97.70;;;;;;4980259;28;20060;-83
2024/03/26 11:59:55;;;;;;;3.28;2.20;;;12.30;97.80;;;;;;4980405;28;20023;-83
2024/03/26 12:02:21;;;;;;;2.95;2.03;;;12.30;97.80;;;;;;4997642;28;20105;-82
2024/03/26 12:04:47;;;;;;;5.43;2.28;;;12.40;97.80;;;;;;4998058;28;20033;-83
2024/03/26 12:07:18;;;;;;;4.22;2.05;;;12.50;97.70;;;;;;4997741;28;20076;-83
2024/03/26 12:09:44;;;;;;;;;;;12.50;97.60;;;;;;4980459;28;20023;-84
2024/03/26 12:12:11;;;;;;;3.67;2.10;;;12.60;97.60;;;;;;4997628;28;19948;-84
2024/03/26 12:14:37;;;;;;;3.38;2.15;;;12.60;97.70;;;;;;4980001;28;20042;-84
2024/03/26 12:17:03;;;;;;;3.50;2.30;;;12.60;97.70;;;;;;4980436;28;20065;-84
2024/03/26 12:19:30;;;;;;;4.55;2.42;;;12.70;97.60;;;;;;4979981;28;20598;-84
2024/03/26 12:21:56;;;;;;;4.18;2.10;;;12.70;97.50;;;;;;4964045;28;20062;-84
2024/03/26 12:24:22;;;;;;;4.40;2.47;;;12.80;97.60;;;;;;4979731;28;20037;-84
2024/03/26 12:26:47;;;;;;;3.15;2.22;;;12.80;97.60;;;;;;4963873;28;20030;-83
2024/03/26 12:29:13;;;;;;;3.83;2.45;;;12.90;97.50;;;;;;4963903;28;20026;-83
2024/03/26 12:31:39;;;;;;;3.17;2.38;;;12.90;97.50;;;;;;4963676;28;20033;-84
2024/03/26 12:34:14;;;;;;;3.20;2.42;;;12.90;97.50;;;;;;4963491;28;20030;-83
2024/03/26 12:36:40;;;;;;;3.83;2.50;;;13.00;97.60;;;;;;4948477;28;20042;-83
2024/03/26 12:39:10;;;;;;;8.05;2.63;;;13.00;97.50;;;;;;4979492;28;20039;-84
2024/03/26 12:41:36;;;;;;;3.70;2.17;;;13.00;97.50;;;;;;4979537;28;20263;-83
2024/03/26 12:44:10;;;;;;;3.92;2.30;;;13.10;97.60;;;;;;4979693;28;20149;-83
2024/03/26 12:46:36;;;;;;;2.97;2.10;;;13.10;97.60;;;;;;4997079;28;20481;-83
2024/03/26 12:49:04;;;;;;;4.32;2.35;;;13.20;97.60;;;;;;4996891;28;20035;-83
2024/03/26 12:51:30;;;;;;;6.07;2.25;;;13.30;97.60;;;;;;4963607;28;20096;-83